sensor_id;sensor_type;location;lat;lon;timestamp;P1;durP1;ratioP1;P2;durP2;ratioP2
22282;SDS011;11310;51.528;21.204;2022-09-13T00:01:25;12.95;;;6.22;;
22282;SDS011;11310;51.528;21.204;2022-09-13T00:03:54;13.30;;;7.45;;
22282;SDS011;11310;51.528;21.204;2022-09-13T00:06:22;15.48;;;6.95;;
22282;SDS011;11310;51.528;21.204;2022-09-13T00:08:51;13.02;;;7.88;;
22282;SDS011;11310;51.528;21.204;2022-09-13T00:11:22;13.30;;;7.75;;
22282;SDS011;11310;51.528;21.204;2022-09-13T00:13:51;14.77;;;7.40;;
22282;SDS011;11310;51.528;21.204;2022-09-13T00:16:23;13.40;;;7.63;;
22282;SDS011;11310;51.528;21.204;2022-09-13T00:18:54;12.55;;;6.63;;
22282;SDS011;11310;51.528;21.204;2022-09-13T00:21:24;15.10;;;7.78;;
22282;SDS011;11310;51.528;21.204;2022-09-13T00:23:53;14.52;;;7.05;;
22282;SDS011;11310;51.528;21.204;2022-09-13T00:26:24;11.48;;;6.70;;
22282;SDS011;11310;51.528;21.204;2022-09-13T00:28:54;11.83;;;6.40;;
22282;SDS011;11310;51.528;21.204;2022-09-13T00:31:26;12.32;;;7.10;;
22282;SDS011;11310;51.528;21.204;2022-09-13T00:33:57;8.93;;;5.13;;
22282;SDS011;11310;51.528;21.204;2022-09-13T00:36:26;9.02;;;5.20;;
22282;SDS011;11310;51.528;21.204;2022-09-13T00:38:55;8.63;;;4.18;;
22282;SDS011;11310;51.528;21.204;2022-09-13T00:41:24;9.70;;;4.10;;
22282;SDS011;11310;51.528;21.204;2022-09-13T00:43:53;7.30;;;3.63;;
22282;SDS011;11310;51.528;21.204;2022-09-13T00:46:26;7.35;;;4.05;;
22282;SDS011;11310;51.528;21.204;2022-09-13T00:49:02;5.95;;;3.67;;
22282;SDS011;11310;51.528;21.204;2022-09-13T00:51:39;7.50;;;3.83;;
22282;SDS011;11310;51.528;21.204;2022-09-13T00:54:12;7.90;;;4.38;;
22282;SDS011;11310;51.528;21.204;2022-09-13T00:56:44;9.35;;;5.18;;
22282;SDS011;11310;51.528;21.204;2022-09-13T00:59:17;13.70;;;6.63;;
22282;SDS011;11310;51.528;21.204;2022-09-13T01:01:52;12.52;;;6.93;;
22282;SDS011;11310;51.528;21.204;2022-09-13T01:04:25;16.15;;;7.25;;
22282;SDS011;11310;51.528;21.204;2022-09-13T01:06:57;15.85;;;6.65;;
22282;SDS011;11310;51.528;21.204;2022-09-13T01:11:58;11.73;;;6.32;;
22282;SDS011;11310;51.528;21.204;2022-09-13T01:14:34;12.43;;;6.03;;
22282;SDS011;11310;51.528;21.204;2022-09-13T01:17:06;12.48;;;6.43;;
22282;SDS011;11310;51.528;21.204;2022-09-13T01:19:35;12.18;;;6.97;;
22282;SDS011;11310;51.528;21.204;2022-09-13T01:25:20;14.10;;;6.78;;
22282;SDS011;11310;51.528;21.204;2022-09-13T01:28:09;11.50;;;6.45;;
22282;SDS011;11310;51.528;21.204;2022-09-13T01:30:51;12.20;;;6.07;;
22282;SDS011;11310;51.528;21.204;2022-09-13T01:33:33;11.40;;;6.15;;
22282;SDS011;11310;51.528;21.204;2022-09-13T01:39:13;11.98;;;6.13;;
22282;SDS011;11310;51.528;21.204;2022-09-13T01:41:51;11.45;;;5.95;;
22282;SDS011;11310;51.528;21.204;2022-09-13T01:44:34;9.93;;;5.88;;
22282;SDS011;11310;51.528;21.204;2022-09-13T01:47:17;9.15;;;5.88;;
22282;SDS011;11310;51.528;21.204;2022-09-13T01:49:54;9.77;;;5.72;;
22282;SDS011;11310;51.528;21.204;2022-09-13T01:52:34;10.70;;;5.88;;
22282;SDS011;11310;51.528;21.204;2022-09-13T01:55:10;10.48;;;5.47;;
22282;SDS011;11310;51.528;21.204;2022-09-13T01:57:46;11.18;;;5.88;;
22282;SDS011;11310;51.528;21.204;2022-09-13T02:00:18;11.48;;;5.93;;
22282;SDS011;11310;51.528;21.204;2022-09-13T02:02:49;9.85;;;5.88;;
22282;SDS011;11310;51.528;21.204;2022-09-13T02:05:24;10.43;;;5.90;;
22282;SDS011;11310;51.528;21.204;2022-09-13T02:07:59;11.10;;;5.70;;
22282;SDS011;11310;51.528;21.204;2022-09-13T02:10:32;11.20;;;6.10;;
22282;SDS011;11310;51.528;21.204;2022-09-13T02:13:02;9.90;;;5.45;;
22282;SDS011;11310;51.528;21.204;2022-09-13T02:15:35;8.40;;;5.38;;
22282;SDS011;11310;51.528;21.204;2022-09-13T02:18:09;7.75;;;4.75;;
22282;SDS011;11310;51.528;21.204;2022-09-13T02:20:43;9.90;;;5.07;;
22282;SDS011;11310;51.528;21.204;2022-09-13T02:25:45;7.75;;;4.35;;
22282;SDS011;11310;51.528;21.204;2022-09-13T02:28:18;11.57;;;5.65;;
22282;SDS011;11310;51.528;21.204;2022-09-13T02:30:51;9.02;;;5.00;;
22282;SDS011;11310;51.528;21.204;2022-09-13T02:33:23;9.25;;;4.80;;
22282;SDS011;11310;51.528;21.204;2022-09-13T02:35:57;8.73;;;4.95;;
22282;SDS011;11310;51.528;21.204;2022-09-13T02:38:29;7.82;;;4.47;;
22282;SDS011;11310;51.528;21.204;2022-09-13T02:41:05;8.75;;;4.78;;
22282;SDS011;11310;51.528;21.204;2022-09-13T02:43:38;8.27;;;4.93;;
22282;SDS011;11310;51.528;21.204;2022-09-13T02:46:14;8.82;;;5.22;;
22282;SDS011;11310;51.528;21.204;2022-09-13T02:48:56;9.05;;;5.18;;
22282;SDS011;11310;51.528;21.204;2022-09-13T02:51:29;8.50;;;4.60;;
22282;SDS011;11310;51.528;21.204;2022-09-13T02:54:08;10.48;;;5.45;;
22282;SDS011;11310;51.528;21.204;2022-09-13T02:56:49;8.90;;;4.90;;
22282;SDS011;11310;51.528;21.204;2022-09-13T02:59:21;7.80;;;4.30;;
22282;SDS011;11310;51.528;21.204;2022-09-13T03:01:52;8.00;;;5.05;;
22282;SDS011;11310;51.528;21.204;2022-09-13T03:04:25;13.75;;;6.68;;
22282;SDS011;11310;51.528;21.204;2022-09-13T03:06:55;8.52;;;5.15;;
22282;SDS011;11310;51.528;21.204;2022-09-13T03:09:23;7.63;;;3.92;;
22282;SDS011;11310;51.528;21.204;2022-09-13T03:11:59;7.65;;;4.28;;
22282;SDS011;11310;51.528;21.204;2022-09-13T03:14:43;7.85;;;4.18;;
22282;SDS011;11310;51.528;21.204;2022-09-13T03:17:23;6.65;;;4.13;;
22282;SDS011;11310;51.528;21.204;2022-09-13T03:20:08;7.72;;;4.07;;
22282;SDS011;11310;51.528;21.204;2022-09-13T03:22:57;8.25;;;3.72;;
22282;SDS011;11310;51.528;21.204;2022-09-13T03:25:41;6.18;;;3.67;;
22282;SDS011;11310;51.528;21.204;2022-09-13T03:28:25;8.25;;;4.15;;
22282;SDS011;11310;51.528;21.204;2022-09-13T03:31:02;6.78;;;3.58;;
22282;SDS011;11310;51.528;21.204;2022-09-13T03:33:38;6.05;;;3.47;;
22282;SDS011;11310;51.528;21.204;2022-09-13T03:36:17;5.38;;;3.30;;
22282;SDS011;11310;51.528;21.204;2022-09-13T03:38:51;7.32;;;3.30;;
22282;SDS011;11310;51.528;21.204;2022-09-13T03:41:24;4.78;;;2.97;;
22282;SDS011;11310;51.528;21.204;2022-09-13T03:43:58;4.80;;;2.90;;
22282;SDS011;11310;51.528;21.204;2022-09-13T03:46:32;6.57;;;3.15;;
22282;SDS011;11310;51.528;21.204;2022-09-13T03:49:05;4.93;;;3.10;;
22282;SDS011;11310;51.528;21.204;2022-09-13T03:51:37;4.57;;;2.90;;
22282;SDS011;11310;51.528;21.204;2022-09-13T03:54:07;6.55;;;3.20;;
22282;SDS011;11310;51.528;21.204;2022-09-13T03:56:41;5.95;;;3.13;;
22282;SDS011;11310;51.528;21.204;2022-09-13T03:59:10;5.57;;;2.80;;
22282;SDS011;11310;51.528;21.204;2022-09-13T04:01:38;4.20;;;2.50;;
22282;SDS011;11310;51.528;21.204;2022-09-13T04:04:08;4.32;;;2.85;;
22282;SDS011;11310;51.528;21.204;2022-09-13T04:06:38;4.45;;;2.83;;
22282;SDS011;11310;51.528;21.204;2022-09-13T04:09:07;4.97;;;3.15;;
22282;SDS011;11310;51.528;21.204;2022-09-13T04:11:35;5.20;;;2.83;;
22282;SDS011;11310;51.528;21.204;2022-09-13T04:14:06;5.50;;;2.80;;
22282;SDS011;11310;51.528;21.204;2022-09-13T04:16:35;5.35;;;2.88;;
22282;SDS011;11310;51.528;21.204;2022-09-13T04:19:04;4.93;;;2.90;;
22282;SDS011;11310;51.528;21.204;2022-09-13T04:21:33;4.60;;;2.80;;
22282;SDS011;11310;51.528;21.204;2022-09-13T04:24:03;4.80;;;2.80;;
22282;SDS011;11310;51.528;21.204;2022-09-13T04:26:32;6.05;;;3.20;;
22282;SDS011;11310;51.528;21.204;2022-09-13T04:29:02;5.05;;;3.20;;
22282;SDS011;11310;51.528;21.204;2022-09-13T04:31:31;5.57;;;3.05;;
22282;SDS011;11310;51.528;21.204;2022-09-13T04:34:00;6.00;;;3.13;;
22282;SDS011;11310;51.528;21.204;2022-09-13T04:36:29;4.93;;;3.30;;
22282;SDS011;11310;51.528;21.204;2022-09-13T04:39:00;6.22;;;3.20;;
22282;SDS011;11310;51.528;21.204;2022-09-13T04:41:30;5.20;;;3.03;;
22282;SDS011;11310;51.528;21.204;2022-09-13T04:44:01;5.38;;;3.35;;
22282;SDS011;11310;51.528;21.204;2022-09-13T04:46:30;5.80;;;3.35;;
22282;SDS011;11310;51.528;21.204;2022-09-13T04:48:59;5.85;;;3.35;;
22282;SDS011;11310;51.528;21.204;2022-09-13T04:51:28;5.05;;;3.10;;
22282;SDS011;11310;51.528;21.204;2022-09-13T04:53:56;7.22;;;3.42;;
22282;SDS011;11310;51.528;21.204;2022-09-13T04:56:26;5.70;;;3.30;;
22282;SDS011;11310;51.528;21.204;2022-09-13T04:58:56;7.35;;;3.85;;
22282;SDS011;11310;51.528;21.204;2022-09-13T05:01:24;6.00;;;3.67;;
22282;SDS011;11310;51.528;21.204;2022-09-13T05:03:54;4.95;;;3.05;;
22282;SDS011;11310;51.528;21.204;2022-09-13T05:06:23;6.13;;;3.47;;
22282;SDS011;11310;51.528;21.204;2022-09-13T05:08:52;5.60;;;3.25;;
22282;SDS011;11310;51.528;21.204;2022-09-13T05:11:23;7.47;;;3.20;;
22282;SDS011;11310;51.528;21.204;2022-09-13T05:13:53;6.18;;;3.55;;
22282;SDS011;11310;51.528;21.204;2022-09-13T05:16:28;5.55;;;3.40;;
22282;SDS011;11310;51.528;21.204;2022-09-13T05:18:58;5.00;;;3.28;;
22282;SDS011;11310;51.528;21.204;2022-09-13T05:21:27;5.63;;;3.28;;
22282;SDS011;11310;51.528;21.204;2022-09-13T05:23:57;7.00;;;4.38;;
22282;SDS011;11310;51.528;21.204;2022-09-13T05:26:27;15.52;;;6.03;;
22282;SDS011;11310;51.528;21.204;2022-09-13T05:28:58;9.82;;;4.57;;
22282;SDS011;11310;51.528;21.204;2022-09-13T05:31:30;7.15;;;3.90;;
22282;SDS011;11310;51.528;21.204;2022-09-13T05:34:01;8.35;;;4.25;;
22282;SDS011;11310;51.528;21.204;2022-09-13T05:36:32;9.50;;;4.25;;
22282;SDS011;11310;51.528;21.204;2022-09-13T05:39:04;11.38;;;4.18;;
22282;SDS011;11310;51.528;21.204;2022-09-13T05:41:53;7.88;;;4.00;;
22282;SDS011;11310;51.528;21.204;2022-09-13T05:44:22;7.13;;;3.97;;
22282;SDS011;11310;51.528;21.204;2022-09-13T05:46:53;6.82;;;3.63;;
22282;SDS011;11310;51.528;21.204;2022-09-13T05:49:21;7.90;;;3.95;;
22282;SDS011;11310;51.528;21.204;2022-09-13T05:51:49;6.32;;;3.83;;
22282;SDS011;11310;51.528;21.204;2022-09-13T05:54:18;7.80;;;3.80;;
22282;SDS011;11310;51.528;21.204;2022-09-13T05:56:46;6.75;;;3.78;;
22282;SDS011;11310;51.528;21.204;2022-09-13T05:59:18;9.13;;;3.97;;
22282;SDS011;11310;51.528;21.204;2022-09-13T06:01:47;7.38;;;4.13;;
22282;SDS011;11310;51.528;21.204;2022-09-13T06:04:17;6.88;;;4.00;;
22282;SDS011;11310;51.528;21.204;2022-09-13T06:06:46;7.63;;;4.28;;
22282;SDS011;11310;51.528;21.204;2022-09-13T06:09:14;7.32;;;4.20;;
22282;SDS011;11310;51.528;21.204;2022-09-13T06:11:44;8.55;;;4.80;;
22282;SDS011;11310;51.528;21.204;2022-09-13T06:14:13;7.57;;;4.22;;
22282;SDS011;11310;51.528;21.204;2022-09-13T06:16:42;8.00;;;4.65;;
22282;SDS011;11310;51.528;21.204;2022-09-13T06:19:10;7.68;;;4.60;;
22282;SDS011;11310;51.528;21.204;2022-09-13T06:21:40;8.05;;;4.20;;
22282;SDS011;11310;51.528;21.204;2022-09-13T06:24:09;9.75;;;4.50;;
22282;SDS011;11310;51.528;21.204;2022-09-13T06:26:38;9.30;;;4.70;;
22282;SDS011;11310;51.528;21.204;2022-09-13T06:29:09;7.70;;;4.60;;
22282;SDS011;11310;51.528;21.204;2022-09-13T06:31:39;13.55;;;5.13;;
22282;SDS011;11310;51.528;21.204;2022-09-13T06:34:11;9.35;;;4.70;;
22282;SDS011;11310;51.528;21.204;2022-09-13T06:36:43;7.53;;;3.92;;
22282;SDS011;11310;51.528;21.204;2022-09-13T06:39:12;8.60;;;4.80;;
22282;SDS011;11310;51.528;21.204;2022-09-13T06:41:41;11.43;;;5.20;;
22282;SDS011;11310;51.528;21.204;2022-09-13T06:44:10;10.77;;;4.45;;
22282;SDS011;11310;51.528;21.204;2022-09-13T06:46:39;8.18;;;4.60;;
22282;SDS011;11310;51.528;21.204;2022-09-13T06:49:08;9.07;;;4.78;;
22282;SDS011;11310;51.528;21.204;2022-09-13T06:51:37;8.80;;;4.68;;
22282;SDS011;11310;51.528;21.204;2022-09-13T06:54:07;8.93;;;4.78;;
22282;SDS011;11310;51.528;21.204;2022-09-13T06:56:36;10.48;;;5.10;;
22282;SDS011;11310;51.528;21.204;2022-09-13T06:59:06;8.40;;;4.85;;
22282;SDS011;11310;51.528;21.204;2022-09-13T07:01:37;14.77;;;5.30;;
22282;SDS011;11310;51.528;21.204;2022-09-13T07:04:07;8.73;;;4.95;;
22282;SDS011;11310;51.528;21.204;2022-09-13T07:06:38;8.33;;;4.77;;
22282;SDS011;11310;51.528;21.204;2022-09-13T07:09:11;8.13;;;4.55;;
22282;SDS011;11310;51.528;21.204;2022-09-13T07:11:43;12.60;;;5.40;;
22282;SDS011;11310;51.528;21.204;2022-09-13T07:14:13;9.60;;;4.65;;
22282;SDS011;11310;51.528;21.204;2022-09-13T07:16:44;9.82;;;4.80;;
22282;SDS011;11310;51.528;21.204;2022-09-13T07:19:13;9.32;;;5.20;;
22282;SDS011;11310;51.528;21.204;2022-09-13T07:21:43;7.82;;;4.43;;
22282;SDS011;11310;51.528;21.204;2022-09-13T07:24:14;10.93;;;4.88;;
22282;SDS011;11310;51.528;21.204;2022-09-13T07:26:43;8.32;;;4.63;;
22282;SDS011;11310;51.528;21.204;2022-09-13T07:29:13;9.75;;;4.70;;
22282;SDS011;11310;51.528;21.204;2022-09-13T07:31:46;10.07;;;4.93;;
22282;SDS011;11310;51.528;21.204;2022-09-13T07:34:16;10.27;;;4.85;;
22282;SDS011;11310;51.528;21.204;2022-09-13T07:36:46;8.88;;;4.93;;
22282;SDS011;11310;51.528;21.204;2022-09-13T07:39:17;10.98;;;5.03;;
22282;SDS011;11310;51.528;21.204;2022-09-13T07:41:48;9.15;;;4.68;;
22282;SDS011;11310;51.528;21.204;2022-09-13T07:44:18;9.10;;;4.63;;
22282;SDS011;11310;51.528;21.204;2022-09-13T07:46:46;9.15;;;4.97;;
22282;SDS011;11310;51.528;21.204;2022-09-13T07:49:16;9.88;;;4.28;;
22282;SDS011;11310;51.528;21.204;2022-09-13T07:51:45;9.82;;;4.55;;
22282;SDS011;11310;51.528;21.204;2022-09-13T07:54:18;9.88;;;4.70;;
22282;SDS011;11310;51.528;21.204;2022-09-13T07:56:47;8.50;;;4.03;;
22282;SDS011;11310;51.528;21.204;2022-09-13T07:59:18;9.80;;;4.68;;
22282;SDS011;11310;51.528;21.204;2022-09-13T08:01:47;20.40;;;4.60;;
22282;SDS011;11310;51.528;21.204;2022-09-13T08:04:18;8.15;;;3.88;;
22282;SDS011;11310;51.528;21.204;2022-09-13T08:06:51;8.98;;;4.20;;
22282;SDS011;11310;51.528;21.204;2022-09-13T08:09:21;9.65;;;3.80;;
22282;SDS011;11310;51.528;21.204;2022-09-13T08:11:50;8.52;;;4.25;;
22282;SDS011;11310;51.528;21.204;2022-09-13T08:14:20;6.95;;;3.30;;
22282;SDS011;11310;51.528;21.204;2022-09-13T08:16:50;5.53;;;3.28;;
22282;SDS011;11310;51.528;21.204;2022-09-13T08:19:22;6.28;;;3.17;;
22282;SDS011;11310;51.528;21.204;2022-09-13T08:21:52;8.63;;;3.65;;
22282;SDS011;11310;51.528;21.204;2022-09-13T08:24:22;8.88;;;3.35;;
22282;SDS011;11310;51.528;21.204;2022-09-13T08:26:53;6.82;;;3.25;;
22282;SDS011;11310;51.528;21.204;2022-09-13T08:29:24;5.38;;;3.08;;
22282;SDS011;11310;51.528;21.204;2022-09-13T08:31:53;4.60;;;2.40;;
22282;SDS011;11310;51.528;21.204;2022-09-13T08:34:22;5.45;;;2.40;;
22282;SDS011;11310;51.528;21.204;2022-09-13T08:36:53;4.63;;;2.33;;
22282;SDS011;11310;51.528;21.204;2022-09-13T08:39:23;5.20;;;2.13;;
22282;SDS011;11310;51.528;21.204;2022-09-13T08:42:17;5.35;;;2.00;;
22282;SDS011;11310;51.528;21.204;2022-09-13T08:44:52;5.90;;;1.92;;
22282;SDS011;11310;51.528;21.204;2022-09-13T08:47:30;4.03;;;1.52;;
22282;SDS011;11310;51.528;21.204;2022-09-13T08:50:10;2.22;;;1.20;;
22282;SDS011;11310;51.528;21.204;2022-09-13T08:52:46;3.20;;;1.40;;
22282;SDS011;11310;51.528;21.204;2022-09-13T08:55:22;3.55;;;1.67;;
22282;SDS011;11310;51.528;21.204;2022-09-13T08:57:59;4.53;;;1.58;;
22282;SDS011;11310;51.528;21.204;2022-09-13T09:00:39;4.95;;;1.30;;
22282;SDS011;11310;51.528;21.204;2022-09-13T09:03:14;2.00;;;1.10;;
22282;SDS011;11310;51.528;21.204;2022-09-13T09:05:49;5.00;;;1.60;;
22282;SDS011;11310;51.528;21.204;2022-09-13T09:08:24;2.50;;;1.30;;
22282;SDS011;11310;51.528;21.204;2022-09-13T09:11:00;2.92;;;1.70;;
22282;SDS011;11310;51.528;21.204;2022-09-13T09:13:35;2.85;;;1.48;;
22282;SDS011;11310;51.528;21.204;2022-09-13T09:16:11;5.13;;;1.40;;
22282;SDS011;11310;51.528;21.204;2022-09-13T09:18:52;3.83;;;1.30;;
22282;SDS011;11310;51.528;21.204;2022-09-13T09:21:25;2.95;;;1.27;;
22282;SDS011;11310;51.528;21.204;2022-09-13T09:23:54;4.35;;;1.55;;
22282;SDS011;11310;51.528;21.204;2022-09-13T09:26:28;3.67;;;1.70;;
22282;SDS011;11310;51.528;21.204;2022-09-13T09:28:59;2.75;;;1.30;;
22282;SDS011;11310;51.528;21.204;2022-09-13T09:31:30;4.05;;;1.30;;
22282;SDS011;11310;51.528;21.204;2022-09-13T09:34:09;2.42;;;1.10;;
22282;SDS011;11310;51.528;21.204;2022-09-13T09:36:46;5.22;;;1.70;;
22282;SDS011;11310;51.528;21.204;2022-09-13T09:39:22;3.95;;;1.45;;
22282;SDS011;11310;51.528;21.204;2022-09-13T09:41:57;3.60;;;1.35;;
22282;SDS011;11310;51.528;21.204;2022-09-13T09:44:30;3.25;;;1.42;;
22282;SDS011;11310;51.528;21.204;2022-09-13T09:47:02;2.00;;;1.33;;
22282;SDS011;11310;51.528;21.204;2022-09-13T09:49:39;5.20;;;1.40;;
22282;SDS011;11310;51.528;21.204;2022-09-13T09:52:30;2.65;;;1.58;;
22282;SDS011;11310;51.528;21.204;2022-09-13T09:55:10;3.05;;;1.60;;
22282;SDS011;11310;51.528;21.204;2022-09-13T09:57:52;3.33;;;1.52;;
22282;SDS011;11310;51.528;21.204;2022-09-13T10:00:26;3.85;;;1.95;;
22282;SDS011;11310;51.528;21.204;2022-09-13T10:02:57;6.13;;;1.65;;
22282;SDS011;11310;51.528;21.204;2022-09-13T10:05:29;3.80;;;1.60;;
22282;SDS011;11310;51.528;21.204;2022-09-13T10:07:59;2.03;;;1.40;;
22282;SDS011;11310;51.528;21.204;2022-09-13T10:10:35;2.15;;;1.27;;
22282;SDS011;11310;51.528;21.204;2022-09-13T10:13:12;3.42;;;1.30;;
22282;SDS011;11310;51.528;21.204;2022-09-13T10:15:51;3.20;;;1.55;;
22282;SDS011;11310;51.528;21.204;2022-09-13T10:18:21;2.88;;;1.30;;
22282;SDS011;11310;51.528;21.204;2022-09-13T10:21:19;4.28;;;1.65;;
22282;SDS011;11310;51.528;21.204;2022-09-13T10:23:49;5.13;;;1.58;;
22282;SDS011;11310;51.528;21.204;2022-09-13T10:26:20;2.53;;;1.38;;
22282;SDS011;11310;51.528;21.204;2022-09-13T10:28:53;3.67;;;1.30;;
22282;SDS011;11310;51.528;21.204;2022-09-13T10:31:29;2.17;;;1.40;;
22282;SDS011;11310;51.528;21.204;2022-09-13T10:34:03;2.17;;;1.40;;
22282;SDS011;11310;51.528;21.204;2022-09-13T10:36:36;3.70;;;1.75;;
22282;SDS011;11310;51.528;21.204;2022-09-13T10:39:19;3.60;;;1.75;;
22282;SDS011;11310;51.528;21.204;2022-09-13T10:41:50;3.95;;;1.80;;
22282;SDS011;11310;51.528;21.204;2022-09-13T10:44:25;3.45;;;1.40;;
22282;SDS011;11310;51.528;21.204;2022-09-13T10:46:57;2.72;;;1.40;;
22282;SDS011;11310;51.528;21.204;2022-09-13T10:49:35;3.17;;;1.67;;
22282;SDS011;11310;51.528;21.204;2022-09-13T10:52:24;3.42;;;1.80;;
22282;SDS011;11310;51.528;21.204;2022-09-13T10:58:14;3.38;;;1.55;;
22282;SDS011;11310;51.528;21.204;2022-09-13T11:04:13;2.97;;;1.60;;
22282;SDS011;11310;51.528;21.204;2022-09-13T11:07:03;3.83;;;1.45;;
22282;SDS011;11310;51.528;21.204;2022-09-13T11:09:40;2.03;;;1.20;;
22282;SDS011;11310;51.528;21.204;2022-09-13T11:12:16;4.10;;;1.70;;
22282;SDS011;11310;51.528;21.204;2022-09-13T11:14:55;5.00;;;1.50;;
22282;SDS011;11310;51.528;21.204;2022-09-13T11:17:37;3.83;;;1.80;;
22282;SDS011;11310;51.528;21.204;2022-09-13T11:20:25;3.93;;;1.77;;
22282;SDS011;11310;51.528;21.204;2022-09-13T11:23:20;5.03;;;2.10;;
22282;SDS011;11310;51.528;21.204;2022-09-13T11:26:16;5.50;;;1.60;;
22282;SDS011;11310;51.528;21.204;2022-09-13T11:28:54;2.20;;;1.40;;
22282;SDS011;11310;51.528;21.204;2022-09-13T11:31:37;2.88;;;1.83;;
22282;SDS011;11310;51.528;21.204;2022-09-13T11:34:18;3.10;;;1.65;;
22282;SDS011;11310;51.528;21.204;2022-09-13T11:37:03;3.40;;;1.65;;
22282;SDS011;11310;51.528;21.204;2022-09-13T11:39:42;4.82;;;1.60;;
22282;SDS011;11310;51.528;21.204;2022-09-13T11:42:23;3.22;;;1.70;;
22282;SDS011;11310;51.528;21.204;2022-09-13T11:45:13;5.97;;;1.90;;
22282;SDS011;11310;51.528;21.204;2022-09-13T11:47:51;2.90;;;1.58;;
22282;SDS011;11310;51.528;21.204;2022-09-13T11:50:35;2.58;;;1.50;;
22282;SDS011;11310;51.528;21.204;2022-09-13T11:53:19;4.20;;;1.70;;
22282;SDS011;11310;51.528;21.204;2022-09-13T11:56:05;2.25;;;1.60;;
22282;SDS011;11310;51.528;21.204;2022-09-13T11:58:38;4.35;;;1.70;;
22282;SDS011;11310;51.528;21.204;2022-09-13T12:01:16;3.20;;;1.80;;
22282;SDS011;11310;51.528;21.204;2022-09-13T12:03:51;3.33;;;1.75;;
22282;SDS011;11310;51.528;21.204;2022-09-13T12:06:29;2.58;;;1.73;;
22282;SDS011;11310;51.528;21.204;2022-09-13T12:09:01;5.90;;;1.98;;
22282;SDS011;11310;51.528;21.204;2022-09-13T12:11:34;5.07;;;2.05;;
22282;SDS011;11310;51.528;21.204;2022-09-13T12:14:06;4.05;;;2.20;;
22282;SDS011;11310;51.528;21.204;2022-09-13T12:16:42;3.97;;;2.35;;
22282;SDS011;11310;51.528;21.204;2022-09-13T12:19:15;3.25;;;2.05;;
22282;SDS011;11310;51.528;21.204;2022-09-13T12:21:49;3.05;;;1.67;;
22282;SDS011;11310;51.528;21.204;2022-09-13T12:24:20;4.22;;;2.20;;
22282;SDS011;11310;51.528;21.204;2022-09-13T12:26:58;4.43;;;2.13;;
22282;SDS011;11310;51.528;21.204;2022-09-13T12:29:32;3.65;;;2.10;;
22282;SDS011;11310;51.528;21.204;2022-09-13T12:32:07;4.32;;;2.30;;
22282;SDS011;11310;51.528;21.204;2022-09-13T12:34:39;3.42;;;1.90;;
22282;SDS011;11310;51.528;21.204;2022-09-13T12:37:18;4.18;;;2.00;;
22282;SDS011;11310;51.528;21.204;2022-09-13T12:40:14;3.00;;;1.88;;
22282;SDS011;11310;51.528;21.204;2022-09-13T12:43:04;4.15;;;1.60;;
22282;SDS011;11310;51.528;21.204;2022-09-13T12:52:19;2.03;;;1.35;;
22282;SDS011;11310;51.528;21.204;2022-09-13T12:55:03;3.47;;;1.88;;
22282;SDS011;11310;51.528;21.204;2022-09-13T12:58:27;3.83;;;1.45;;
22282;SDS011;11310;51.528;21.204;2022-09-13T13:01:09;3.33;;;1.63;;
22282;SDS011;11310;51.528;21.204;2022-09-13T13:03:45;4.00;;;1.60;;
22282;SDS011;11310;51.528;21.204;2022-09-13T13:06:26;2.70;;;1.73;;
22282;SDS011;11310;51.528;21.204;2022-09-13T13:09:02;3.35;;;1.90;;
22282;SDS011;11310;51.528;21.204;2022-09-13T13:11:43;2.72;;;1.98;;
22282;SDS011;11310;51.528;21.204;2022-09-13T13:14:27;3.88;;;1.80;;
22282;SDS011;11310;51.528;21.204;2022-09-13T13:23:14;2.75;;;1.52;;
22282;SDS011;11310;51.528;21.204;2022-09-13T13:25:55;2.45;;;1.70;;
22282;SDS011;11310;51.528;21.204;2022-09-13T13:28:48;4.07;;;2.00;;
22282;SDS011;11310;51.528;21.204;2022-09-13T13:31:32;4.15;;;1.90;;
22282;SDS011;11310;51.528;21.204;2022-09-13T13:34:19;3.58;;;2.08;;
22282;SDS011;11310;51.528;21.204;2022-09-13T13:37:01;3.03;;;1.63;;
22282;SDS011;11310;51.528;21.204;2022-09-13T13:39:34;2.95;;;1.52;;
22282;SDS011;11310;51.528;21.204;2022-09-13T13:42:18;4.18;;;1.90;;
22282;SDS011;11310;51.528;21.204;2022-09-13T13:45:03;3.78;;;1.48;;
22282;SDS011;11310;51.528;21.204;2022-09-13T13:53:57;2.47;;;1.42;;
22282;SDS011;11310;51.528;21.204;2022-09-13T13:56:31;3.13;;;1.80;;
22282;SDS011;11310;51.528;21.204;2022-09-13T13:59:07;2.67;;;1.45;;
22282;SDS011;11310;51.528;21.204;2022-09-13T14:01:43;5.57;;;1.75;;
22282;SDS011;11310;51.528;21.204;2022-09-13T14:07:28;2.10;;;1.50;;
22282;SDS011;11310;51.528;21.204;2022-09-13T14:10:17;2.45;;;1.33;;
22282;SDS011;11310;51.528;21.204;2022-09-13T14:12:55;4.20;;;1.80;;
22282;SDS011;11310;51.528;21.204;2022-09-13T14:15:48;2.65;;;1.50;;
22282;SDS011;11310;51.528;21.204;2022-09-13T14:18:35;2.55;;;1.63;;
22282;SDS011;11310;51.528;21.204;2022-09-13T14:21:21;3.17;;;1.50;;
22282;SDS011;11310;51.528;21.204;2022-09-13T14:24:06;3.13;;;1.77;;
22282;SDS011;11310;51.528;21.204;2022-09-13T14:26:37;1.85;;;1.48;;
22282;SDS011;11310;51.528;21.204;2022-09-13T14:29:07;2.38;;;1.42;;
22282;SDS011;11310;51.528;21.204;2022-09-13T14:31:38;1.88;;;1.27;;
22282;SDS011;11310;51.528;21.204;2022-09-13T14:34:16;2.92;;;1.50;;
22282;SDS011;11310;51.528;21.204;2022-09-13T14:36:51;2.95;;;1.50;;
22282;SDS011;11310;51.528;21.204;2022-09-13T14:39:21;2.70;;;1.50;;
22282;SDS011;11310;51.528;21.204;2022-09-13T14:41:56;2.35;;;1.50;;
22282;SDS011;11310;51.528;21.204;2022-09-13T14:44:27;4.15;;;1.77;;
22282;SDS011;11310;51.528;21.204;2022-09-13T14:47:04;3.77;;;1.77;;
22282;SDS011;11310;51.528;21.204;2022-09-13T14:49:40;3.73;;;1.93;;
22282;SDS011;11310;51.528;21.204;2022-09-13T14:52:16;3.40;;;1.27;;
22282;SDS011;11310;51.528;21.204;2022-09-13T14:54:51;2.80;;;1.67;;
22282;SDS011;11310;51.528;21.204;2022-09-13T14:57:24;4.40;;;1.77;;
22282;SDS011;11310;51.528;21.204;2022-09-13T14:59:57;4.82;;;1.50;;
22282;SDS011;11310;51.528;21.204;2022-09-13T15:02:34;2.92;;;1.40;;
22282;SDS011;11310;51.528;21.204;2022-09-13T15:05:06;3.30;;;1.52;;
22282;SDS011;11310;51.528;21.204;2022-09-13T15:07:40;5.10;;;1.70;;
22282;SDS011;11310;51.528;21.204;2022-09-13T15:10:19;2.40;;;1.15;;
22282;SDS011;11310;51.528;21.204;2022-09-13T15:12:53;3.88;;;1.45;;
22282;SDS011;11310;51.528;21.204;2022-09-13T15:15:33;2.72;;;1.67;;
22282;SDS011;11310;51.528;21.204;2022-09-13T15:18:05;4.55;;;1.95;;
22282;SDS011;11310;51.528;21.204;2022-09-13T15:20:51;5.47;;;1.50;;
22282;SDS011;11310;51.528;21.204;2022-09-13T15:23:23;5.32;;;1.77;;
22282;SDS011;11310;51.528;21.204;2022-09-13T15:25:54;2.30;;;1.48;;
22282;SDS011;11310;51.528;21.204;2022-09-13T15:28:26;5.03;;;1.40;;
22282;SDS011;11310;51.528;21.204;2022-09-13T15:30:56;3.58;;;1.55;;
22282;SDS011;11310;51.528;21.204;2022-09-13T15:33:30;2.55;;;1.50;;
22282;SDS011;11310;51.528;21.204;2022-09-13T15:38:55;2.88;;;1.67;;
22282;SDS011;11310;51.528;21.204;2022-09-13T15:46:28;7.60;;;1.77;;
22282;SDS011;11310;51.528;21.204;2022-09-13T15:49:00;4.20;;;1.92;;
22282;SDS011;11310;51.528;21.204;2022-09-13T15:51:31;2.95;;;1.70;;
22282;SDS011;11310;51.528;21.204;2022-09-13T15:54:07;3.05;;;1.70;;
22282;SDS011;11310;51.528;21.204;2022-09-13T15:56:40;2.70;;;1.65;;
22282;SDS011;11310;51.528;21.204;2022-09-13T15:59:11;4.80;;;1.50;;
22282;SDS011;11310;51.528;21.204;2022-09-13T16:01:41;3.20;;;1.77;;
22282;SDS011;11310;51.528;21.204;2022-09-13T16:04:12;2.88;;;1.70;;